sensor_id;sensor_type;location;lat;lon;timestamp;pressure;altitude;pressure_sealevel;temperature;humidity
60642;BME280;46837;52.446;-1.930;2022-10-16T00:00:09;98796.64;;;10.56;74.87
60642;BME280;46837;52.446;-1.930;2022-10-16T00:01:13;98803.92;;;10.57;74.83
60642;BME280;46837;52.446;-1.930;2022-10-16T00:02:09;98800.48;;;10.57;74.79
60642;BME280;46837;52.446;-1.930;2022-10-16T00:03:09;98801.64;;;10.51;75.09
60642;BME280;46837;52.446;-1.930;2022-10-16T00:04:09;98808.14;;;10.51;75.07
60642;BME280;46837;52.446;-1.930;2022-10-16T00:05:09;98808.14;;;10.51;75.05
60642;BME280;46837;52.446;-1.930;2022-10-16T00:06:09;98813.06;;;10.51;75.18
60642;BME280;46837;52.446;-1.930;2022-10-16T00:07:09;98810.78;;;10.50;75.19
60642;BME280;46837;52.446;-1.930;2022-10-16T00:08:10;98813.64;;;10.53;75.09
60642;BME280;46837;52.446;-1.930;2022-10-16T00:09:09;98817.50;;;10.47;75.30
60642;BME280;46837;52.446;-1.930;2022-10-16T00:10:09;98815.81;;;10.49;75.21
60642;BME280;46837;52.446;-1.930;2022-10-16T00:11:14;98818.45;;;10.49;75.22
60642;BME280;46837;52.446;-1.930;2022-10-16T00:12:09;98816.30;;;10.46;75.36
60642;BME280;46837;52.446;-1.930;2022-10-16T00:13:09;98816.12;;;10.48;75.30
60642;BME280;46837;52.446;-1.930;2022-10-16T00:14:11;98819.18;;;10.48;75.21
60642;BME280;46837;52.446;-1.930;2022-10-16T00:15:09;98822.61;;;10.51;75.15
60642;BME280;46837;52.446;-1.930;2022-10-16T00:16:09;98825.39;;;10.54;75.08
60642;BME280;46837;52.446;-1.930;2022-10-16T00:17:09;98826.39;;;10.54;75.04
60642;BME280;46837;52.446;-1.930;2022-10-16T00:18:09;98829.17;;;10.51;75.13
60642;BME280;46837;52.446;-1.930;2022-10-16T00:19:09;98833.44;;;10.50;75.15
60642;BME280;46837;52.446;-1.930;2022-10-16T00:20:09;98824.75;;;10.45;75.28
60642;BME280;46837;52.446;-1.930;2022-10-16T00:21:10;98827.43;;;10.50;75.21
60642;BME280;46837;52.446;-1.930;2022-10-16T00:22:09;98832.62;;;10.47;75.25
60642;BME280;46837;52.446;-1.930;2022-10-16T00:23:09;98835.89;;;10.45;75.49
60642;BME280;46837;52.446;-1.930;2022-10-16T00:24:09;98835.12;;;10.46;75.35
60642;BME280;46837;52.446;-1.930;2022-10-16T00:25:09;98839.36;;;10.46;75.31
60642;BME280;46837;52.446;-1.930;2022-10-16T00:26:12;98841.09;;;10.47;75.31
60642;BME280;46837;52.446;-1.930;2022-10-16T00:27:09;98845.96;;;10.46;75.34
60642;BME280;46837;52.446;-1.930;2022-10-16T00:28:09;98842.76;;;10.49;75.23
60642;BME280;46837;52.446;-1.930;2022-10-16T00:29:09;98847.36;;;10.51;75.18
60642;BME280;46837;52.446;-1.930;2022-10-16T00:30:09;98842.83;;;10.48;75.24
60642;BME280;46837;52.446;-1.930;2022-10-16T00:31:10;98841.79;;;10.48;75.27
60642;BME280;46837;52.446;-1.930;2022-10-16T00:32:09;98847.60;;;10.46;75.33
60642;BME280;46837;52.446;-1.930;2022-10-16T00:33:09;98841.54;;;10.49;75.24
60642;BME280;46837;52.446;-1.930;2022-10-16T00:34:09;98847.04;;;10.54;75.13
60642;BME280;46837;52.446;-1.930;2022-10-16T00:35:09;98849.63;;;10.53;75.04
60642;BME280;46837;52.446;-1.930;2022-10-16T00:36:11;98843.32;;;10.48;75.33
60642;BME280;46837;52.446;-1.930;2022-10-16T00:37:09;98839.75;;;10.49;75.31
60642;BME280;46837;52.446;-1.930;2022-10-16T00:38:09;98848.50;;;10.51;75.27
60642;BME280;46837;52.446;-1.930;2022-10-16T00:39:09;98846.74;;;10.53;75.22
60642;BME280;46837;52.446;-1.930;2022-10-16T00:40:09;98845.21;;;10.52;75.34
60642;BME280;46837;52.446;-1.930;2022-10-16T00:41:14;98851.60;;;10.53;75.33
60642;BME280;46837;52.446;-1.930;2022-10-16T00:42:14;98848.11;;;10.52;75.27
60642;BME280;46837;52.446;-1.930;2022-10-16T00:43:14;98847.37;;;10.47;75.49
60642;BME280;46837;52.446;-1.930;2022-10-16T00:45:09;98836.70;;;10.49;75.57
60642;BME280;46837;52.446;-1.930;2022-10-16T00:47:11;98849.47;;;10.53;75.42
60642;BME280;46837;52.446;-1.930;2022-10-16T00:48:11;98847.19;;;10.51;75.46
60642;BME280;46837;52.446;-1.930;2022-10-16T00:49:13;98851.29;;;10.54;75.38
60642;BME280;46837;52.446;-1.930;2022-10-16T00:51:09;98846.15;;;10.55;75.30
60642;BME280;46837;52.446;-1.930;2022-10-16T00:52:09;98856.04;;;10.54;75.27
60642;BME280;46837;52.446;-1.930;2022-10-16T00:53:09;98855.77;;;10.51;75.51
60642;BME280;46837;52.446;-1.930;2022-10-16T00:55:10;98857.79;;;10.57;75.28
60642;BME280;46837;52.446;-1.930;2022-10-16T00:56:09;98857.61;;;10.55;75.26
60642;BME280;46837;52.446;-1.930;2022-10-16T00:57:09;98859.58;;;10.52;75.48
60642;BME280;46837;52.446;-1.930;2022-10-16T00:58:09;98859.00;;;10.50;75.60
60642;BME280;46837;52.446;-1.930;2022-10-16T00:59:18;98861.47;;;10.50;75.65
60642;BME280;46837;52.446;-1.930;2022-10-16T01:00:09;98855.82;;;10.48;75.74
60642;BME280;46837;52.446;-1.930;2022-10-16T01:01:09;98860.70;;;10.47;75.87
60642;BME280;46837;52.446;-1.930;2022-10-16T01:02:10;98864.51;;;10.45;75.97
60642;BME280;46837;52.446;-1.930;2022-10-16T01:04:09;98861.67;;;10.45;76.08
60642;BME280;46837;52.446;-1.930;2022-10-16T01:05:09;98866.59;;;10.47;76.06
60642;BME280;46837;52.446;-1.930;2022-10-16T01:11:17;98869.61;;;10.43;76.61
60642;BME280;46837;52.446;-1.930;2022-10-16T01:12:23;98871.23;;;10.45;76.59
60642;BME280;46837;52.446;-1.930;2022-10-16T01:13:11;98870.80;;;10.44;76.70
60642;BME280;46837;52.446;-1.930;2022-10-16T01:14:18;98866.75;;;10.45;76.74
60642;BME280;46837;52.446;-1.930;2022-10-16T01:16:14;98880.62;;;10.42;76.93
60642;BME280;46837;52.446;-1.930;2022-10-16T01:17:18;98883.33;;;10.43;76.97
60642;BME280;46837;52.446;-1.930;2022-10-16T01:19:18;98882.59;;;10.45;77.00
60642;BME280;46837;52.446;-1.930;2022-10-16T01:22:09;98880.52;;;10.44;77.22
60642;BME280;46837;52.446;-1.930;2022-10-16T01:24:17;98890.39;;;10.42;77.43
60642;BME280;46837;52.446;-1.930;2022-10-16T01:25:16;98886.05;;;10.43;77.50
60642;BME280;46837;52.446;-1.930;2022-10-16T01:26:20;98887.83;;;10.42;77.61
60642;BME280;46837;52.446;-1.930;2022-10-16T01:27:17;98895.97;;;10.45;77.59
60642;BME280;46837;52.446;-1.930;2022-10-16T01:28:10;98905.27;;;10.44;77.84
60642;BME280;46837;52.446;-1.930;2022-10-16T01:30:16;98899.14;;;10.48;77.67
60642;BME280;46837;52.446;-1.930;2022-10-16T01:31:11;98905.65;;;10.47;77.75
60642;BME280;46837;52.446;-1.930;2022-10-16T01:33:16;98903.10;;;10.56;77.64
60642;BME280;46837;52.446;-1.930;2022-10-16T01:34:24;98898.10;;;10.57;77.50
60642;BME280;46837;52.446;-1.930;2022-10-16T01:35:14;98903.51;;;10.54;77.57
60642;BME280;46837;52.446;-1.930;2022-10-16T01:36:13;98907.87;;;10.58;77.39
60642;BME280;46837;52.446;-1.930;2022-10-16T01:37:14;98908.51;;;10.62;77.25
60642;BME280;46837;52.446;-1.930;2022-10-16T01:38:17;98912.07;;;10.63;77.18
60642;BME280;46837;52.446;-1.930;2022-10-16T01:39:11;98907.91;;;10.62;77.27
60642;BME280;46837;52.446;-1.930;2022-10-16T01:40:11;98916.81;;;10.62;77.32
60642;BME280;46837;52.446;-1.930;2022-10-16T01:41:12;98915.62;;;10.65;77.32
60642;BME280;46837;52.446;-1.930;2022-10-16T01:42:12;98922.27;;;10.69;77.17
60642;BME280;46837;52.446;-1.930;2022-10-16T01:43:17;98917.73;;;10.68;77.15
60642;BME280;46837;52.446;-1.930;2022-10-16T01:45:09;98917.01;;;10.72;77.14
60642;BME280;46837;52.446;-1.930;2022-10-16T01:46:09;98921.33;;;10.67;77.37
60642;BME280;46837;52.446;-1.930;2022-10-16T01:47:10;98916.80;;;10.69;77.37
60642;BME280;46837;52.446;-1.930;2022-10-16T01:48:12;98916.48;;;10.71;77.34
60642;BME280;46837;52.446;-1.930;2022-10-16T01:49:09;98912.86;;;10.75;77.19
60642;BME280;46837;52.446;-1.930;2022-10-16T01:50:09;98911.11;;;10.75;77.17
60642;BME280;46837;52.446;-1.930;2022-10-16T01:51:10;98907.29;;;10.75;77.17
60642;BME280;46837;52.446;-1.930;2022-10-16T01:52:11;98918.77;;;10.75;77.24
60642;BME280;46837;52.446;-1.930;2022-10-16T01:53:10;98919.22;;;10.71;77.35
60642;BME280;46837;52.446;-1.930;2022-10-16T01:54:10;98922.43;;;10.69;77.53
60642;BME280;46837;52.446;-1.930;2022-10-16T01:55:09;98925.70;;;10.70;77.50
60642;BME280;46837;52.446;-1.930;2022-10-16T01:56:09;98930.12;;;10.72;77.39
60642;BME280;46837;52.446;-1.930;2022-10-16T01:57:09;98933.18;;;10.70;77.49
60642;BME280;46837;52.446;-1.930;2022-10-16T01:58:09;98935.01;;;10.67;77.59
60642;BME280;46837;52.446;-1.930;2022-10-16T01:59:13;98934.87;;;10.70;77.44
60642;BME280;46837;52.446;-1.930;2022-10-16T02:00:10;98934.31;;;10.64;77.70
60642;BME280;46837;52.446;-1.930;2022-10-16T02:01:09;98929.70;;;10.62;77.76
60642;BME280;46837;52.446;-1.930;2022-10-16T02:02:09;98931.74;;;10.61;77.64
60642;BME280;46837;52.446;-1.930;2022-10-16T02:03:09;98926.33;;;10.64;77.57
60642;BME280;46837;52.446;-1.930;2022-10-16T02:04:14;98929.23;;;10.58;77.58
60642;BME280;46837;52.446;-1.930;2022-10-16T02:05:18;98931.97;;;10.60;77.57
60642;BME280;46837;52.446;-1.930;2022-10-16T02:06:09;98931.51;;;10.62;77.34
60642;BME280;46837;52.446;-1.930;2022-10-16T02:07:09;98928.84;;;10.64;77.11
60642;BME280;46837;52.446;-1.930;2022-10-16T02:08:09;98923.12;;;10.60;77.11
60642;BME280;46837;52.446;-1.930;2022-10-16T02:09:09;98923.05;;;10.55;77.13
60642;BME280;46837;52.446;-1.930;2022-10-16T02:10:09;98923.45;;;10.53;77.18
60642;BME280;46837;52.446;-1.930;2022-10-16T02:11:09;98928.56;;;10.56;77.04
60642;BME280;46837;52.446;-1.930;2022-10-16T02:12:23;98928.75;;;10.54;77.06
60642;BME280;46837;52.446;-1.930;2022-10-16T02:13:19;98930.61;;;10.57;76.86
60642;BME280;46837;52.446;-1.930;2022-10-16T02:14:09;98938.08;;;10.55;76.79
60642;BME280;46837;52.446;-1.930;2022-10-16T02:15:09;98933.22;;;10.51;76.81
60642;BME280;46837;52.446;-1.930;2022-10-16T02:16:09;98943.39;;;10.50;76.79
60642;BME280;46837;52.446;-1.930;2022-10-16T02:17:13;98944.81;;;10.47;76.77
60642;BME280;46837;52.446;-1.930;2022-10-16T02:18:09;98949.76;;;10.49;76.67
60642;BME280;46837;52.446;-1.930;2022-10-16T02:19:09;98950.48;;;10.45;76.61
60642;BME280;46837;52.446;-1.930;2022-10-16T02:20:09;98953.80;;;10.45;76.66
60642;BME280;46837;52.446;-1.930;2022-10-16T02:21:14;98954.54;;;10.47;76.55
60642;BME280;46837;52.446;-1.930;2022-10-16T02:22:12;98960.58;;;10.45;76.43
60642;BME280;46837;52.446;-1.930;2022-10-16T02:23:12;98962.78;;;10.43;76.30
60642;BME280;46837;52.446;-1.930;2022-10-16T02:24:22;98954.69;;;10.41;76.20
60642;BME280;46837;52.446;-1.930;2022-10-16T02:25:15;98969.38;;;10.38;76.23
60642;BME280;46837;52.446;-1.930;2022-10-16T02:26:11;98970.36;;;10.41;76.09
60642;BME280;46837;52.446;-1.930;2022-10-16T02:27:17;98970.43;;;10.44;75.88
60642;BME280;46837;52.446;-1.930;2022-10-16T02:28:12;98976.34;;;10.39;75.84
60642;BME280;46837;52.446;-1.930;2022-10-16T02:29:12;98977.90;;;10.41;75.82
60642;BME280;46837;52.446;-1.930;2022-10-16T02:31:11;98981.41;;;10.40;75.56
60642;BME280;46837;52.446;-1.930;2022-10-16T02:32:09;98988.89;;;10.40;75.54
60642;BME280;46837;52.446;-1.930;2022-10-16T02:33:09;98987.62;;;10.41;75.46
60642;BME280;46837;52.446;-1.930;2022-10-16T02:34:09;98987.57;;;10.41;75.39
60642;BME280;46837;52.446;-1.930;2022-10-16T02:35:09;98984.74;;;10.43;75.33
60642;BME280;46837;52.446;-1.930;2022-10-16T02:36:09;98983.49;;;10.35;75.19
60642;BME280;46837;52.446;-1.930;2022-10-16T02:37:09;98985.29;;;10.39;75.23
60642;BME280;46837;52.446;-1.930;2022-10-16T02:38:09;98983.52;;;10.38;74.97
60642;BME280;46837;52.446;-1.930;2022-10-16T02:39:09;98981.62;;;10.36;75.05
60642;BME280;46837;52.446;-1.930;2022-10-16T02:40:09;98987.80;;;10.39;75.00
60642;BME280;46837;52.446;-1.930;2022-10-16T02:41:09;98987.31;;;10.39;74.87
60642;BME280;46837;52.446;-1.930;2022-10-16T02:42:12;98988.34;;;10.40;74.84
60642;BME280;46837;52.446;-1.930;2022-10-16T02:43:09;98989.09;;;10.41;74.81
60642;BME280;46837;52.446;-1.930;2022-10-16T02:44:09;98988.45;;;10.33;75.05
60642;BME280;46837;52.446;-1.930;2022-10-16T02:45:10;98992.22;;;10.32;75.17
60642;BME280;46837;52.446;-1.930;2022-10-16T02:46:09;98988.58;;;10.28;75.27
60642;BME280;46837;52.446;-1.930;2022-10-16T02:47:09;98988.34;;;10.29;75.38
60642;BME280;46837;52.446;-1.930;2022-10-16T02:48:09;98993.72;;;10.28;75.38
60642;BME280;46837;52.446;-1.930;2022-10-16T02:49:09;98995.09;;;10.28;75.39
60642;BME280;46837;52.446;-1.930;2022-10-16T02:50:09;98992.10;;;10.26;75.58
60642;BME280;46837;52.446;-1.930;2022-10-16T02:51:09;98999.61;;;10.25;75.63
60642;BME280;46837;52.446;-1.930;2022-10-16T02:52:09;99008.15;;;10.26;75.56
60642;BME280;46837;52.446;-1.930;2022-10-16T02:53:09;99000.37;;;10.21;75.77
60642;BME280;46837;52.446;-1.930;2022-10-16T02:54:09;99005.69;;;10.25;75.73
60642;BME280;46837;52.446;-1.930;2022-10-16T02:55:09;99006.46;;;10.24;75.68
60642;BME280;46837;52.446;-1.930;2022-10-16T02:56:09;99011.59;;;10.26;75.61
60642;BME280;46837;52.446;-1.930;2022-10-16T02:57:09;99007.60;;;10.27;75.61
60642;BME280;46837;52.446;-1.930;2022-10-16T02:58:09;99009.80;;;10.22;75.60
60642;BME280;46837;52.446;-1.930;2022-10-16T02:59:09;99010.83;;;10.24;75.71
60642;BME280;46837;52.446;-1.930;2022-10-16T03:00:09;99016.57;;;10.24;75.71
60642;BME280;46837;52.446;-1.930;2022-10-16T03:01:09;99017.21;;;10.24;75.71
60642;BME280;46837;52.446;-1.930;2022-10-16T03:02:09;99021.98;;;10.23;75.79
60642;BME280;46837;52.446;-1.930;2022-10-16T03:03:09;99025.68;;;10.20;75.88
60642;BME280;46837;52.446;-1.930;2022-10-16T03:04:09;99027.75;;;10.16;76.02
60642;BME280;46837;52.446;-1.930;2022-10-16T03:05:09;99028.50;;;10.18;75.96
60642;BME280;46837;52.446;-1.930;2022-10-16T03:06:09;99028.79;;;10.21;75.91
60642;BME280;46837;52.446;-1.930;2022-10-16T03:07:09;99033.23;;;10.22;75.83
60642;BME280;46837;52.446;-1.930;2022-10-16T03:08:09;99037.70;;;10.24;75.79
60642;BME280;46837;52.446;-1.930;2022-10-16T03:09:09;99039.98;;;10.20;75.97
60642;BME280;46837;52.446;-1.930;2022-10-16T03:10:09;99041.53;;;10.23;75.87
60642;BME280;46837;52.446;-1.930;2022-10-16T03:11:09;99046.42;;;10.21;75.96
60642;BME280;46837;52.446;-1.930;2022-10-16T03:12:09;99043.91;;;10.21;75.94
60642;BME280;46837;52.446;-1.930;2022-10-16T03:13:09;99051.61;;;10.21;75.96
60642;BME280;46837;52.446;-1.930;2022-10-16T03:14:09;99045.38;;;10.16;76.16
60642;BME280;46837;52.446;-1.930;2022-10-16T03:15:09;99055.16;;;10.15;76.25
60642;BME280;46837;52.446;-1.930;2022-10-16T03:16:09;99054.46;;;10.15;76.24
60642;BME280;46837;52.446;-1.930;2022-10-16T03:17:09;99064.15;;;10.13;76.29
60642;BME280;46837;52.446;-1.930;2022-10-16T03:18:09;99066.46;;;10.16;76.22
60642;BME280;46837;52.446;-1.930;2022-10-16T03:19:09;99064.21;;;10.17;76.21
60642;BME280;46837;52.446;-1.930;2022-10-16T03:20:09;99064.16;;;10.16;76.15
60642;BME280;46837;52.446;-1.930;2022-10-16T03:21:09;99062.96;;;10.16;76.17
60642;BME280;46837;52.446;-1.930;2022-10-16T03:22:09;99063.34;;;10.16;76.20
60642;BME280;46837;52.446;-1.930;2022-10-16T03:23:09;99060.22;;;10.18;76.12
60642;BME280;46837;52.446;-1.930;2022-10-16T03:24:09;99065.05;;;10.14;76.29
60642;BME280;46837;52.446;-1.930;2022-10-16T03:25:09;99064.60;;;10.16;76.16
60642;BME280;46837;52.446;-1.930;2022-10-16T03:26:09;99068.10;;;10.15;76.12
60642;BME280;46837;52.446;-1.930;2022-10-16T03:27:09;99069.95;;;10.12;76.29
60642;BME280;46837;52.446;-1.930;2022-10-16T03:28:09;99075.23;;;10.14;76.25
60642;BME280;46837;52.446;-1.930;2022-10-16T03:29:09;99078.72;;;10.09;76.37
60642;BME280;46837;52.446;-1.930;2022-10-16T03:30:09;99080.15;;;10.07;76.44
60642;BME280;46837;52.446;-1.930;2022-10-16T03:31:09;99078.48;;;10.07;76.39
60642;BME280;46837;52.446;-1.930;2022-10-16T03:32:09;99081.52;;;10.00;76.66
60642;BME280;46837;52.446;-1.930;2022-10-16T03:33:09;99086.96;;;10.04;76.45
60642;BME280;46837;52.446;-1.930;2022-10-16T03:34:09;99092.15;;;10.09;76.30
60642;BME280;46837;52.446;-1.930;2022-10-16T03:35:09;99092.70;;;10.08;76.21
60642;BME280;46837;52.446;-1.930;2022-10-16T03:36:09;99093.11;;;10.07;76.30
60642;BME280;46837;52.446;-1.930;2022-10-16T03:37:09;99093.13;;;10.09;76.20
60642;BME280;46837;52.446;-1.930;2022-10-16T03:38:09;99094.82;;;10.09;76.08
60642;BME280;46837;52.446;-1.930;2022-10-16T03:39:09;99098.54;;;10.08;76.17
60642;BME280;46837;52.446;-1.930;2022-10-16T03:40:09;99098.41;;;10.07;76.21
60642;BME280;46837;52.446;-1.930;2022-10-16T03:41:09;99104.03;;;10.07;76.23
60642;BME280;46837;52.446;-1.930;2022-10-16T03:42:09;99104.91;;;10.06;76.17
60642;BME280;46837;52.446;-1.930;2022-10-16T03:43:09;99109.10;;;10.01;76.33
60642;BME280;46837;52.446;-1.930;2022-10-16T03:44:09;99114.46;;;10.01;76.36
60642;BME280;46837;52.446;-1.930;2022-10-16T03:45:09;99115.42;;;9.98;76.48
60642;BME280;46837;52.446;-1.930;2022-10-16T03:46:09;99114.16;;;9.99;76.45
60642;BME280;46837;52.446;-1.930;2022-10-16T03:47:09;99112.99;;;9.97;76.40
60642;BME280;46837;52.446;-1.930;2022-10-16T03:48:09;99119.02;;;9.99;76.37
60642;BME280;46837;52.446;-1.930;2022-10-16T03:49:09;99116.84;;;9.99;76.28
60642;BME280;46837;52.446;-1.930;2022-10-16T03:50:09;99122.79;;;9.97;76.36
60642;BME280;46837;52.446;-1.930;2022-10-16T03:51:09;99121.59;;;9.98;76.30
60642;BME280;46837;52.446;-1.930;2022-10-16T03:52:09;99118.95;;;9.95;76.32
60642;BME280;46837;52.446;-1.930;2022-10-16T03:53:09;99123.69;;;9.90;76.47
60642;BME280;46837;52.446;-1.930;2022-10-16T03:54:09;99124.38;;;9.88;76.53
60642;BME280;46837;52.446;-1.930;2022-10-16T03:55:09;99125.75;;;9.87;76.58
60642;BME280;46837;52.446;-1.930;2022-10-16T03:56:09;99123.17;;;9.89;76.48
60642;BME280;46837;52.446;-1.930;2022-10-16T03:57:09;99128.81;;;9.91;76.41
60642;BME280;46837;52.446;-1.930;2022-10-16T03:58:09;99131.03;;;9.89;76.39
60642;BME280;46837;52.446;-1.930;2022-10-16T03:59:09;99133.21;;;9.89;76.50
60642;BME280;46837;52.446;-1.930;2022-10-16T04:00:09;99135.69;;;9.91;76.38
60642;BME280;46837;52.446;-1.930;2022-10-16T04:01:09;99139.24;;;9.90;76.42
60642;BME280;46837;52.446;-1.930;2022-10-16T04:02:09;99140.80;;;9.90;76.38
60642;BME280;46837;52.446;-1.930;2022-10-16T04:03:09;99141.26;;;9.91;76.34
60642;BME280;46837;52.446;-1.930;2022-10-16T04:04:09;99144.85;;;9.87;76.44
60642;BME280;46837;52.446;-1.930;2022-10-16T04:05:09;99139.71;;;9.87;76.40
60642;BME280;46837;52.446;-1.930;2022-10-16T04:06:09;99149.48;;;9.87;76.46
60642;BME280;46837;52.446;-1.930;2022-10-16T04:07:09;99153.45;;;9.83;76.65
60642;BME280;46837;52.446;-1.930;2022-10-16T04:08:09;99154.40;;;9.87;76.59
60642;BME280;46837;52.446;-1.930;2022-10-16T04:09:09;99156.71;;;9.85;76.54
60642;BME280;46837;52.446;-1.930;2022-10-16T04:10:09;99160.93;;;9.84;76.57
60642;BME280;46837;52.446;-1.930;2022-10-16T04:11:09;99161.70;;;9.79;76.72
60642;BME280;46837;52.446;-1.930;2022-10-16T04:12:09;99164.00;;;9.77;76.82
60642;BME280;46837;52.446;-1.930;2022-10-16T04:13:09;99168.88;;;9.79;76.76
60642;BME280;46837;52.446;-1.930;2022-10-16T04:14:09;99168.55;;;9.79;76.72
60642;BME280;46837;52.446;-1.930;2022-10-16T04:15:09;99168.96;;;9.78;76.74
60642;BME280;46837;52.446;-1.930;2022-10-16T04:16:09;99168.52;;;9.76;76.84
60642;BME280;46837;52.446;-1.930;2022-10-16T04:17:09;99174.40;;;9.72;77.02
60642;BME280;46837;52.446;-1.930;2022-10-16T04:18:09;99176.52;;;9.75;76.98
60642;BME280;46837;52.446;-1.930;2022-10-16T04:19:09;99176.41;;;9.73;77.06
60642;BME280;46837;52.446;-1.930;2022-10-16T04:20:09;99172.76;;;9.73;76.98
60642;BME280;46837;52.446;-1.930;2022-10-16T04:21:09;99177.07;;;9.73;76.99
60642;BME280;46837;52.446;-1.930;2022-10-16T04:22:09;99176.03;;;9.75;76.93
60642;BME280;46837;52.446;-1.930;2022-10-16T04:23:09;99175.79;;;9.72;77.00
60642;BME280;46837;52.446;-1.930;2022-10-16T04:24:09;99184.10;;;9.74;76.94
60642;BME280;46837;52.446;-1.930;2022-10-16T04:25:09;99183.07;;;9.74;76.94
60642;BME280;46837;52.446;-1.930;2022-10-16T04:26:09;99181.54;;;9.73;76.89
60642;BME280;46837;52.446;-1.930;2022-10-16T04:27:09;99185.78;;;9.70;77.04
60642;BME280;46837;52.446;-1.930;2022-10-16T04:28:09;99184.96;;;9.70;77.10
60642;BME280;46837;52.446;-1.930;2022-10-16T04:29:09;99185.48;;;9.68;77.17
60642;BME280;46837;52.446;-1.930;2022-10-16T04:30:09;99187.12;;;9.65;77.25
60642;BME280;46837;52.446;-1.930;2022-10-16T04:31:09;99188.24;;;9.63;77.30
60642;BME280;46837;52.446;-1.930;2022-10-16T04:32:09;99191.27;;;9.60;77.39
60642;BME280;46837;52.446;-1.930;2022-10-16T04:33:09;99193.83;;;9.61;77.34
60642;BME280;46837;52.446;-1.930;2022-10-16T04:34:09;99194.65;;;9.61;77.40
60642;BME280;46837;52.446;-1.930;2022-10-16T04:35:09;99201.19;;;9.61;77.43
60642;BME280;46837;52.446;-1.930;2022-10-16T04:36:09;99195.82;;;9.64;77.33
60642;BME280;46837;52.446;-1.930;2022-10-16T04:37:09;99201.71;;;9.63;77.33
60642;BME280;46837;52.446;-1.930;2022-10-16T04:38:09;99203.56;;;9.64;77.33
60642;BME280;46837;52.446;-1.930;2022-10-16T04:39:09;99207.05;;;9.65;77.20
60642;BME280;46837;52.446;-1.930;2022-10-16T04:40:09;99204.33;;;9.64;77.22
60642;BME280;46837;52.446;-1.930;2022-10-16T04:41:09;99204.50;;;9.64;77.23
60642;BME280;46837;52.446;-1.930;2022-10-16T04:42:09;99205.02;;;9.60;77.37
60642;BME280;46837;52.446;-1.930;2022-10-16T04:43:09;99208.95;;;9.59;77.36
60642;BME280;46837;52.446;-1.930;2022-10-16T04:44:09;99208.09;;;9.58;77.41
60642;BME280;46837;52.446;-1.930;2022-10-16T04:45:09;99210.91;;;9.54;77.63
60642;BME280;46837;52.446;-1.930;2022-10-16T04:46:09;99216.07;;;9.50;77.76
60642;BME280;46837;52.446;-1.930;2022-10-16T04:47:09;99219.75;;;9.48;77.93
60642;BME280;46837;52.446;-1.930;2022-10-16T04:48:09;99222.34;;;9.51;77.80
60642;BME280;46837;52.446;-1.930;2022-10-16T04:49:09;99224.38;;;9.52;77.69
60642;BME280;46837;52.446;-1.930;2022-10-16T04:50:09;99226.75;;;9.50;77.77
60642;BME280;46837;52.446;-1.930;2022-10-16T04:51:09;99225.06;;;9.50;77.77
60642;BME280;46837;52.446;-1.930;2022-10-16T04:52:09;99226.59;;;9.49;77.80
60642;BME280;46837;52.446;-1.930;2022-10-16T04:53:09;99223.79;;;9.46;77.92
60642;BME280;46837;52.446;-1.930;2022-10-16T04:54:09;99224.16;;;9.46;77.88
60642;BME280;46837;52.446;-1.930;2022-10-16T04:55:09;99229.95;;;9.45;77.89
60642;BME280;46837;52.446;-1.930;2022-10-16T04:56:09;99230.66;;;9.45;77.94
60642;BME280;46837;52.446;-1.930;2022-10-16T04:57:09;99238.56;;;9.40;78.02
60642;BME280;46837;52.446;-1.930;2022-10-16T04:58:09;99242.30;;;9.41;78.10
60642;BME280;46837;52.446;-1.930;2022-10-16T04:59:09;99244.40;;;9.45;77.91
60642;BME280;46837;52.446;-1.930;2022-10-16T05:00:09;99244.67;;;9.45;77.78
60642;BME280;46837;52.446;-1.930;2022-10-16T05:01:09;99244.61;;;9.46;77.75
60642;BME280;46837;52.446;-1.930;2022-10-16T05:02:09;99248.76;;;9.47;77.70
60642;BME280;46837;52.446;-1.930;2022-10-16T05:03:10;99248.57;;;9.42;77.81
60642;BME280;46837;52.446;-1.930;2022-10-16T05:04:09;99259.28;;;9.40;77.94
60642;BME280;46837;52.446;-1.930;2022-10-16T05:05:09;99265.80;;;9.43;77.85
60642;BME280;46837;52.446;-1.930;2022-10-16T05:06:09;99268.09;;;9.44;77.76
60642;BME280;46837;52.446;-1.930;2022-10-16T05:07:09;99269.09;;;9.39;77.85
60642;BME280;46837;52.446;-1.930;2022-10-16T05:08:09;99273.65;;;9.41;77.91
60642;BME280;46837;52.446;-1.930;2022-10-16T05:09:09;99277.46;;;9.42;77.83
60642;BME280;46837;52.446;-1.930;2022-10-16T05:10:09;99281.18;;;9.42;77.71
60642;BME280;46837;52.446;-1.930;2022-10-16T05:11:09;99284.80;;;9.40;77.85
60642;BME280;46837;52.446;-1.930;2022-10-16T05:12:09;99286.30;;;9.43;77.75
60642;BME280;46837;52.446;-1.930;2022-10-16T05:13:09;99293.01;;;9.43;77.66
60642;BME280;46837;52.446;-1.930;2022-10-16T05:14:09;99293.45;;;9.42;77.70
60642;BME280;46837;52.446;-1.930;2022-10-16T05:15:09;99297.02;;;9.44;77.67
60642;BME280;46837;52.446;-1.930;2022-10-16T05:16:09;99295.39;;;9.44;77.62
60642;BME280;46837;52.446;-1.930;2022-10-16T05:17:09;99299.96;;;9.39;77.78
60642;BME280;46837;52.446;-1.930;2022-10-16T05:18:09;99298.36;;;9.41;77.69
60642;BME280;46837;52.446;-1.930;2022-10-16T05:19:09;99300.18;;;9.39;77.69
60642;BME280;46837;52.446;-1.930;2022-10-16T05:20:09;99300.61;;;9.39;77.73
60642;BME280;46837;52.446;-1.930;2022-10-16T05:21:09;99299.52;;;9.39;77.68
60642;BME280;46837;52.446;-1.930;2022-10-16T05:22:09;99304.86;;;9.39;77.71
60642;BME280;46837;52.446;-1.930;2022-10-16T05:23:09;99304.32;;;9.39;77.73
60642;BME280;46837;52.446;-1.930;2022-10-16T05:24:09;99305.21;;;9.36;77.75
60642;BME280;46837;52.446;-1.930;2022-10-16T05:25:09;99308.16;;;9.37;77.77
60642;BME280;46837;52.446;-1.930;2022-10-16T05:26:09;99309.59;;;9.32;77.96
60642;BME280;46837;52.446;-1.930;2022-10-16T05:27:09;99311.56;;;9.31;77.95
60642;BME280;46837;52.446;-1.930;2022-10-16T05:28:09;99317.77;;;9.31;77.98
60642;BME280;46837;52.446;-1.930;2022-10-16T05:29:09;99322.46;;;9.32;77.94
60642;BME280;46837;52.446;-1.930;2022-10-16T05:30:09;99325.73;;;9.33;77.81
60642;BME280;46837;52.446;-1.930;2022-10-16T05:31:09;99330.00;;;9.30;77.95
60642;BME280;46837;52.446;-1.930;2022-10-16T05:32:09;99329.33;;;9.31;77.81
60642;BME280;46837;52.446;-1.930;2022-10-16T05:33:09;99335.73;;;9.28;77.91